sensor_id;sensor_type;location;lat;lon;timestamp;P1;durP1;ratioP1;P2;durP2;ratioP2
38425;SDS011;24210;51.460;6.148;2023-11-22T00:01:13;14.30;;;9.83;;
38425;SDS011;24210;51.460;6.148;2023-11-22T00:03:38;12.47;;;9.60;;
38425;SDS011;24210;51.460;6.148;2023-11-22T00:06:04;10.63;;;8.87;;
38425;SDS011;24210;51.460;6.148;2023-11-22T00:08:29;11.57;;;9.87;;
38425;SDS011;24210;51.460;6.148;2023-11-22T00:10:55;12.80;;;10.37;;
38425;SDS011;24210;51.460;6.148;2023-11-22T00:13:20;12.13;;;9.97;;
38425;SDS011;24210;51.460;6.148;2023-11-22T00:15:45;12.17;;;8.87;;
38425;SDS011;24210;51.460;6.148;2023-11-22T00:18:11;11.93;;;9.47;;
38425;SDS011;24210;51.460;6.148;2023-11-22T00:20:36;13.87;;;10.60;;
38425;SDS011;24210;51.460;6.148;2023-11-22T00:23:01;13.67;;;9.10;;
38425;SDS011;24210;51.460;6.148;2023-11-22T00:25:28;15.95;;;9.90;;
38425;SDS011;24210;51.460;6.148;2023-11-22T00:27:53;11.93;;;10.27;;
38425;SDS011;24210;51.460;6.148;2023-11-22T00:30:18;13.67;;;9.33;;
38425;SDS011;24210;51.460;6.148;2023-11-22T00:32:44;12.33;;;10.57;;
38425;SDS011;24210;51.460;6.148;2023-11-22T00:35:09;13.43;;;9.13;;
38425;SDS011;24210;51.460;6.148;2023-11-22T00:37:34;13.37;;;10.63;;
38425;SDS011;24210;51.460;6.148;2023-11-22T00:40:02;12.85;;;10.20;;
38425;SDS011;24210;51.460;6.148;2023-11-22T00:42:38;13.15;;;10.25;;
38425;SDS011;24210;51.460;6.148;2023-11-22T00:45:05;14.90;;;10.30;;
38425;SDS011;24210;51.460;6.148;2023-11-22T00:47:31;12.38;;;10.13;;
38425;SDS011;24210;51.460;6.148;2023-11-22T00:49:56;14.27;;;11.13;;
38425;SDS011;24210;51.460;6.148;2023-11-22T00:52:21;11.97;;;10.47;;
38425;SDS011;24210;51.460;6.148;2023-11-22T00:54:47;13.33;;;10.50;;
38425;SDS011;24210;51.460;6.148;2023-11-22T00:57:12;12.13;;;10.03;;
38425;SDS011;24210;51.460;6.148;2023-11-22T00:59:37;14.23;;;9.50;;
38425;SDS011;24210;51.460;6.148;2023-11-22T01:02:02;14.17;;;9.27;;
38425;SDS011;24210;51.460;6.148;2023-11-22T01:04:28;15.97;;;11.53;;
38425;SDS011;24210;51.460;6.148;2023-11-22T01:06:53;13.00;;;11.57;;
38425;SDS011;24210;51.460;6.148;2023-11-22T01:09:18;15.93;;;9.80;;
38425;SDS011;24210;51.460;6.148;2023-11-22T01:11:43;11.80;;;10.00;;
38425;SDS011;24210;51.460;6.148;2023-11-22T01:14:09;14.17;;;10.90;;
38425;SDS011;24210;51.460;6.148;2023-11-22T01:16:34;13.10;;;11.00;;
38425;SDS011;24210;51.460;6.148;2023-11-22T01:19:01;12.88;;;10.10;;
38425;SDS011;24210;51.460;6.148;2023-11-22T01:21:27;14.57;;;11.57;;
38425;SDS011;24210;51.460;6.148;2023-11-22T01:23:52;14.60;;;11.60;;
38425;SDS011;24210;51.460;6.148;2023-11-22T01:26:17;16.77;;;11.17;;
38425;SDS011;24210;51.460;6.148;2023-11-22T01:28:42;13.27;;;11.33;;
38425;SDS011;24210;51.460;6.148;2023-11-22T01:33:34;13.70;;;11.35;;
38425;SDS011;24210;51.460;6.148;2023-11-22T01:36:01;15.98;;;11.75;;
38425;SDS011;24210;51.460;6.148;2023-11-22T01:38:26;14.93;;;12.23;;
38425;SDS011;24210;51.460;6.148;2023-11-22T01:40:51;16.03;;;12.57;;
38425;SDS011;24210;51.460;6.148;2023-11-22T01:43:17;16.97;;;11.97;;
38425;SDS011;24210;51.460;6.148;2023-11-22T01:45:43;15.25;;;12.23;;
38425;SDS011;24210;51.460;6.148;2023-11-22T01:48:09;14.38;;;12.27;;
38425;SDS011;24210;51.460;6.148;2023-11-22T01:50:36;16.67;;;13.00;;
38425;SDS011;24210;51.460;6.148;2023-11-22T01:53:01;18.00;;;13.45;;
38425;SDS011;24210;51.460;6.148;2023-11-22T01:55:27;18.10;;;13.43;;
38425;SDS011;24210;51.460;6.148;2023-11-22T01:57:52;18.03;;;14.73;;
38425;SDS011;24210;51.460;6.148;2023-11-22T02:00:18;16.43;;;12.57;;
38425;SDS011;24210;51.460;6.148;2023-11-22T02:02:44;18.65;;;13.68;;
38425;SDS011;24210;51.460;6.148;2023-11-22T02:05:09;16.37;;;12.77;;
38425;SDS011;24210;51.460;6.148;2023-11-22T02:07:36;17.77;;;13.32;;
38425;SDS011;24210;51.460;6.148;2023-11-22T02:10:02;18.13;;;13.50;;
38425;SDS011;24210;51.460;6.148;2023-11-22T02:12:27;17.60;;;14.10;;
38425;SDS011;24210;51.460;6.148;2023-11-22T02:14:53;17.67;;;13.50;;
38425;SDS011;24210;51.460;6.148;2023-11-22T02:17:18;15.47;;;11.67;;
38425;SDS011;24210;51.460;6.148;2023-11-22T02:19:43;17.20;;;11.77;;
38425;SDS011;24210;51.460;6.148;2023-11-22T02:22:08;18.77;;;13.37;;
38425;SDS011;24210;51.460;6.148;2023-11-22T02:24:34;19.47;;;14.07;;
38425;SDS011;24210;51.460;6.148;2023-11-22T02:26:59;17.80;;;13.90;;
38425;SDS011;24210;51.460;6.148;2023-11-22T02:29:25;16.50;;;12.70;;
38425;SDS011;24210;51.460;6.148;2023-11-22T02:31:50;18.33;;;14.10;;
38425;SDS011;24210;51.460;6.148;2023-11-22T02:34:15;19.27;;;12.10;;
38425;SDS011;24210;51.460;6.148;2023-11-22T02:36:43;18.70;;;12.60;;
38425;SDS011;24210;51.460;6.148;2023-11-22T02:39:09;17.63;;;13.32;;
38425;SDS011;24210;51.460;6.148;2023-11-22T02:41:34;17.43;;;13.33;;
38425;SDS011;24210;51.460;6.148;2023-11-22T02:44:00;17.43;;;12.60;;
38425;SDS011;24210;51.460;6.148;2023-11-22T02:46:25;18.73;;;13.80;;
38425;SDS011;24210;51.460;6.148;2023-11-22T02:48:51;16.13;;;11.57;;
38425;SDS011;24210;51.460;6.148;2023-11-22T02:51:16;15.90;;;12.80;;
38425;SDS011;24210;51.460;6.148;2023-11-22T02:53:42;18.73;;;12.57;;
38425;SDS011;24210;51.460;6.148;2023-11-22T02:58:33;19.17;;;14.18;;
38425;SDS011;24210;51.460;6.148;2023-11-22T03:00:59;19.03;;;15.30;;
38425;SDS011;24210;51.460;6.148;2023-11-22T03:03:24;17.17;;;13.60;;
38425;SDS011;24210;51.460;6.148;2023-11-22T03:05:49;20.37;;;15.47;;
38425;SDS011;24210;51.460;6.148;2023-11-22T03:08:15;18.90;;;15.50;;
38425;SDS011;24210;51.460;6.148;2023-11-22T03:10:41;18.40;;;14.80;;
38425;SDS011;24210;51.460;6.148;2023-11-22T03:13:07;21.10;;;13.43;;
38425;SDS011;24210;51.460;6.148;2023-11-22T03:15:33;17.30;;;13.75;;
38425;SDS011;24210;51.460;6.148;2023-11-22T03:17:58;17.70;;;13.93;;
38425;SDS011;24210;51.460;6.148;2023-11-22T03:20:24;16.67;;;14.43;;
38425;SDS011;24210;51.460;6.148;2023-11-22T03:22:49;23.00;;;15.57;;
38425;SDS011;24210;51.460;6.148;2023-11-22T03:25:15;21.17;;;14.55;;
38425;SDS011;24210;51.460;6.148;2023-11-22T03:27:40;21.00;;;15.53;;
38425;SDS011;24210;51.460;6.148;2023-11-22T03:30:06;22.43;;;16.70;;
38425;SDS011;24210;51.460;6.148;2023-11-22T03:32:36;18.58;;;14.77;;
38425;SDS011;24210;51.460;6.148;2023-11-22T03:35:03;20.45;;;15.70;;
38425;SDS011;24210;51.460;6.148;2023-11-22T03:37:30;18.00;;;14.88;;
38425;SDS011;24210;51.460;6.148;2023-11-22T03:39:55;18.87;;;15.17;;
38425;SDS011;24210;51.460;6.148;2023-11-22T03:42:20;15.57;;;12.90;;
38425;SDS011;24210;51.460;6.148;2023-11-22T03:44:46;20.73;;;15.60;;
38425;SDS011;24210;51.460;6.148;2023-11-22T03:47:11;21.17;;;15.30;;
38425;SDS011;24210;51.460;6.148;2023-11-22T03:49:39;22.10;;;15.40;;
38425;SDS011;24210;51.460;6.148;2023-11-22T03:52:04;22.67;;;16.20;;
38425;SDS011;24210;51.460;6.148;2023-11-22T03:54:30;19.00;;;14.13;;
38425;SDS011;24210;51.460;6.148;2023-11-22T03:56:57;19.02;;;14.25;;
38425;SDS011;24210;51.460;6.148;2023-11-22T03:59:22;18.43;;;15.13;;
38425;SDS011;24210;51.460;6.148;2023-11-22T04:01:49;18.52;;;14.25;;
38425;SDS011;24210;51.460;6.148;2023-11-22T04:04:14;18.10;;;14.87;;
38425;SDS011;24210;51.460;6.148;2023-11-22T04:06:39;20.33;;;14.13;;
38425;SDS011;24210;51.460;6.148;2023-11-22T04:09:05;17.33;;;13.45;;
38425;SDS011;24210;51.460;6.148;2023-11-22T04:11:30;16.13;;;14.03;;
38425;SDS011;24210;51.460;6.148;2023-11-22T04:13:56;20.17;;;14.13;;
38425;SDS011;24210;51.460;6.148;2023-11-22T04:16:21;18.57;;;13.73;;
38425;SDS011;24210;51.460;6.148;2023-11-22T04:18:46;17.57;;;13.13;;
38425;SDS011;24210;51.460;6.148;2023-11-22T04:21:12;18.47;;;13.30;;
38425;SDS011;24210;51.460;6.148;2023-11-22T04:23:37;19.37;;;14.17;;
38425;SDS011;24210;51.460;6.148;2023-11-22T04:26:02;19.73;;;13.73;;
38425;SDS011;24210;51.460;6.148;2023-11-22T04:28:28;17.60;;;13.77;;
38425;SDS011;24210;51.460;6.148;2023-11-22T04:33:20;18.38;;;13.60;;
38425;SDS011;24210;51.460;6.148;2023-11-22T04:35:48;16.52;;;13.63;;
38425;SDS011;24210;51.460;6.148;2023-11-22T04:38:13;24.63;;;15.80;;
38425;SDS011;24210;51.460;6.148;2023-11-22T04:40:38;17.90;;;13.23;;
38425;SDS011;24210;51.460;6.148;2023-11-22T04:43:04;20.27;;;16.37;;
38425;SDS011;24210;51.460;6.148;2023-11-22T04:45:29;19.27;;;13.53;;
38425;SDS011;24210;51.460;6.148;2023-11-22T04:47:54;17.77;;;13.83;;
38425;SDS011;24210;51.460;6.148;2023-11-22T04:50:22;19.27;;;14.65;;
38425;SDS011;24210;51.460;6.148;2023-11-22T04:52:49;21.88;;;16.27;;
38425;SDS011;24210;51.460;6.148;2023-11-22T04:55:14;17.23;;;14.30;;
38425;SDS011;24210;51.460;6.148;2023-11-22T04:57:39;16.80;;;13.73;;
38425;SDS011;24210;51.460;6.148;2023-11-22T05:00:05;20.43;;;15.43;;
38425;SDS011;24210;51.460;6.148;2023-11-22T05:02:32;18.40;;;14.27;;
38425;SDS011;24210;51.460;6.148;2023-11-22T05:04:57;23.13;;;15.40;;
38425;SDS011;24210;51.460;6.148;2023-11-22T05:07:22;19.53;;;14.03;;
38425;SDS011;24210;51.460;6.148;2023-11-22T05:09:48;20.63;;;14.57;;
38425;SDS011;24210;51.460;6.148;2023-11-22T05:12:13;19.57;;;13.70;;
38425;SDS011;24210;51.460;6.148;2023-11-22T05:14:39;19.42;;;15.50;;
38425;SDS011;24210;51.460;6.148;2023-11-22T05:17:05;22.07;;;15.53;;
38425;SDS011;24210;51.460;6.148;2023-11-22T05:19:30;19.87;;;14.73;;
38425;SDS011;24210;51.460;6.148;2023-11-22T05:21:56;16.75;;;12.57;;
38425;SDS011;24210;51.460;6.148;2023-11-22T05:24:22;20.20;;;14.30;;
38425;SDS011;24210;51.460;6.148;2023-11-22T05:26:47;17.77;;;14.27;;
38425;SDS011;24210;51.460;6.148;2023-11-22T05:29:12;20.23;;;14.20;;
38425;SDS011;24210;51.460;6.148;2023-11-22T05:31:38;19.80;;;14.90;;
38425;SDS011;24210;51.460;6.148;2023-11-22T05:34:03;20.27;;;14.80;;
38425;SDS011;24210;51.460;6.148;2023-11-22T05:36:29;18.60;;;14.20;;
38425;SDS011;24210;51.460;6.148;2023-11-22T05:38:54;20.98;;;14.93;;
38425;SDS011;24210;51.460;6.148;2023-11-22T05:41:20;20.30;;;14.90;;
38425;SDS011;24210;51.460;6.148;2023-11-22T05:43:45;21.53;;;15.20;;
38425;SDS011;24210;51.460;6.148;2023-11-22T05:46:10;21.93;;;15.63;;
38425;SDS011;24210;51.460;6.148;2023-11-22T05:48:37;29.15;;;16.10;;
38425;SDS011;24210;51.460;6.148;2023-11-22T05:51:03;21.03;;;13.53;;
38425;SDS011;24210;51.460;6.148;2023-11-22T05:53:28;20.90;;;15.23;;
38425;SDS011;24210;51.460;6.148;2023-11-22T05:55:53;21.20;;;15.33;;
38425;SDS011;24210;51.460;6.148;2023-11-22T05:58:18;21.43;;;16.13;;
38425;SDS011;24210;51.460;6.148;2023-11-22T06:00:47;21.23;;;15.53;;
38425;SDS011;24210;51.460;6.148;2023-11-22T06:03:12;22.15;;;16.05;;
38425;SDS011;24210;51.460;6.148;2023-11-22T06:05:38;21.95;;;15.57;;
38425;SDS011;24210;51.460;6.148;2023-11-22T06:08:03;21.97;;;15.77;;
38425;SDS011;24210;51.460;6.148;2023-11-22T06:10:29;21.43;;;14.90;;
38425;SDS011;24210;51.460;6.148;2023-11-22T06:12:54;22.03;;;16.37;;
38425;SDS011;24210;51.460;6.148;2023-11-22T06:15:19;22.67;;;15.73;;
38425;SDS011;24210;51.460;6.148;2023-11-22T06:20:11;21.33;;;15.43;;
38425;SDS011;24210;51.460;6.148;2023-11-22T06:22:36;23.13;;;16.93;;
38425;SDS011;24210;51.460;6.148;2023-11-22T06:25:06;21.30;;;15.85;;
38425;SDS011;24210;51.460;6.148;2023-11-22T06:27:31;21.87;;;15.97;;
38425;SDS011;24210;51.460;6.148;2023-11-22T06:32:23;23.40;;;16.50;;
38425;SDS011;24210;51.460;6.148;2023-11-22T06:34:48;22.63;;;15.87;;
38425;SDS011;24210;51.460;6.148;2023-11-22T06:37:13;21.77;;;16.20;;
38425;SDS011;24210;51.460;6.148;2023-11-22T06:39:38;24.80;;;16.70;;
38425;SDS011;24210;51.460;6.148;2023-11-22T06:42:04;26.40;;;16.20;;
38425;SDS011;24210;51.460;6.148;2023-11-22T06:44:29;22.37;;;16.30;;
38425;SDS011;24210;51.460;6.148;2023-11-22T06:46:54;22.47;;;15.07;;
38425;SDS011;24210;51.460;6.148;2023-11-22T06:49:20;21.47;;;14.90;;
38425;SDS011;24210;51.460;6.148;2023-11-22T06:51:45;22.43;;;15.10;;
38425;SDS011;24210;51.460;6.148;2023-11-22T06:54:10;25.33;;;16.63;;
38425;SDS011;24210;51.460;6.148;2023-11-22T06:56:35;25.80;;;16.47;;
38425;SDS011;24210;51.460;6.148;2023-11-22T06:59:01;23.23;;;15.20;;
38425;SDS011;24210;51.460;6.148;2023-11-22T07:01:26;22.20;;;15.10;;
38425;SDS011;24210;51.460;6.148;2023-11-22T07:03:51;22.20;;;16.00;;
38425;SDS011;24210;51.460;6.148;2023-11-22T07:06:17;22.20;;;15.23;;
38425;SDS011;24210;51.460;6.148;2023-11-22T07:08:46;23.20;;;16.13;;
38425;SDS011;24210;51.460;6.148;2023-11-22T07:11:11;23.42;;;15.98;;
38425;SDS011;24210;51.460;6.148;2023-11-22T07:13:36;26.77;;;17.57;;
38425;SDS011;24210;51.460;6.148;2023-11-22T07:18:29;23.70;;;15.38;;
38425;SDS011;24210;51.460;6.148;2023-11-22T07:20:54;23.80;;;16.13;;
38425;SDS011;24210;51.460;6.148;2023-11-22T07:23:20;20.97;;;16.00;;
38425;SDS011;24210;51.460;6.148;2023-11-22T07:25:47;22.70;;;15.57;;
38425;SDS011;24210;51.460;6.148;2023-11-22T07:28:12;22.47;;;16.00;;
38425;SDS011;24210;51.460;6.148;2023-11-22T07:30:38;25.73;;;17.20;;
38425;SDS011;24210;51.460;6.148;2023-11-22T07:33:06;24.02;;;15.75;;
38425;SDS011;24210;51.460;6.148;2023-11-22T07:35:31;27.23;;;17.20;;
38425;SDS011;24210;51.460;6.148;2023-11-22T07:37:56;30.80;;;16.00;;
38425;SDS011;24210;51.460;6.148;2023-11-22T07:40:22;33.15;;;19.33;;
38425;SDS011;24210;51.460;6.148;2023-11-22T07:42:48;31.40;;;19.07;;
38425;SDS011;24210;51.460;6.148;2023-11-22T07:45:13;40.80;;;17.50;;
38425;SDS011;24210;51.460;6.148;2023-11-22T07:47:38;38.50;;;19.03;;
38425;SDS011;24210;51.460;6.148;2023-11-22T07:50:08;25.70;;;18.33;;
38425;SDS011;24210;51.460;6.148;2023-11-22T07:52:34;24.48;;;17.15;;
38425;SDS011;24210;51.460;6.148;2023-11-22T07:54:59;31.10;;;18.93;;
38425;SDS011;24210;51.460;6.148;2023-11-22T07:57:24;28.67;;;17.23;;
38425;SDS011;24210;51.460;6.148;2023-11-22T07:59:50;25.37;;;16.23;;
38425;SDS011;24210;51.460;6.148;2023-11-22T08:02:19;23.70;;;15.18;;
38425;SDS011;24210;51.460;6.148;2023-11-22T08:04:44;25.90;;;16.00;;
38425;SDS011;24210;51.460;6.148;2023-11-22T08:07:10;22.40;;;15.53;;
38425;SDS011;24210;51.460;6.148;2023-11-22T08:09:36;21.27;;;14.83;;
38425;SDS011;24210;51.460;6.148;2023-11-22T08:12:01;23.07;;;16.87;;
38425;SDS011;24210;51.460;6.148;2023-11-22T08:14:28;22.25;;;16.65;;
38425;SDS011;24210;51.460;6.148;2023-11-22T08:16:53;25.33;;;15.43;;
38425;SDS011;24210;51.460;6.148;2023-11-22T08:19:18;23.30;;;16.43;;
38425;SDS011;24210;51.460;6.148;2023-11-22T08:21:44;23.10;;;15.93;;
38425;SDS011;24210;51.460;6.148;2023-11-22T08:24:09;22.00;;;16.67;;
38425;SDS011;24210;51.460;6.148;2023-11-22T08:26:34;25.50;;;17.10;;
38425;SDS011;24210;51.460;6.148;2023-11-22T08:29:00;22.13;;;15.70;;
38425;SDS011;24210;51.460;6.148;2023-11-22T08:31:25;22.77;;;16.17;;
38425;SDS011;24210;51.460;6.148;2023-11-22T08:33:51;21.77;;;16.67;;
38425;SDS011;24210;51.460;6.148;2023-11-22T08:36:16;22.37;;;17.10;;
38425;SDS011;24210;51.460;6.148;2023-11-22T08:38:41;21.00;;;15.43;;
38425;SDS011;24210;51.460;6.148;2023-11-22T08:41:08;21.73;;;15.52;;
38425;SDS011;24210;51.460;6.148;2023-11-22T08:43:36;25.15;;;16.92;;
38425;SDS011;24210;51.460;6.148;2023-11-22T08:46:01;22.73;;;17.10;;
38425;SDS011;24210;51.460;6.148;2023-11-22T08:48:29;21.92;;;16.45;;
38425;SDS011;24210;51.460;6.148;2023-11-22T08:50:55;24.23;;;17.20;;
38425;SDS011;24210;51.460;6.148;2023-11-22T08:53:21;23.65;;;16.15;;
38425;SDS011;24210;51.460;6.148;2023-11-22T08:55:47;23.57;;;16.50;;
38425;SDS011;24210;51.460;6.148;2023-11-22T08:58:12;21.77;;;16.43;;
38425;SDS011;24210;51.460;6.148;2023-11-22T09:00:38;28.47;;;16.63;;
38425;SDS011;24210;51.460;6.148;2023-11-22T09:03:03;23.37;;;16.50;;
38425;SDS011;24210;51.460;6.148;2023-11-22T09:05:29;21.23;;;15.63;;
38425;SDS011;24210;51.460;6.148;2023-11-22T09:07:54;24.80;;;15.00;;
38425;SDS011;24210;51.460;6.148;2023-11-22T09:10:20;25.63;;;17.70;;
38425;SDS011;24210;51.460;6.148;2023-11-22T09:12:46;23.08;;;15.73;;
38425;SDS011;24210;51.460;6.148;2023-11-22T09:15:12;24.30;;;17.03;;
38425;SDS011;24210;51.460;6.148;2023-11-22T09:17:40;21.52;;;15.55;;
38425;SDS011;24210;51.460;6.148;2023-11-22T09:20:09;19.52;;;14.82;;
38425;SDS011;24210;51.460;6.148;2023-11-22T09:22:45;20.52;;;15.10;;
38425;SDS011;24210;51.460;6.148;2023-11-22T09:25:33;20.48;;;15.27;;
38425;SDS011;24210;51.460;6.148;2023-11-22T09:27:59;21.10;;;14.75;;
38425;SDS011;24210;51.460;6.148;2023-11-22T09:30:26;19.87;;;14.43;;
38425;SDS011;24210;51.460;6.148;2023-11-22T09:33:10;20.17;;;14.40;;
38425;SDS011;24210;51.460;6.148;2023-11-22T09:35:36;20.00;;;14.48;;
38425;SDS011;24210;51.460;6.148;2023-11-22T09:38:02;19.23;;;14.37;;
38425;SDS011;24210;51.460;6.148;2023-11-22T09:40:28;19.00;;;14.02;;
38425;SDS011;24210;51.460;6.148;2023-11-22T09:43:01;16.58;;;14.13;;
38425;SDS011;24210;51.460;6.148;2023-11-22T09:45:27;16.20;;;12.55;;
38425;SDS011;24210;51.460;6.148;2023-11-22T09:47:54;17.92;;;12.80;;
38425;SDS011;24210;51.460;6.148;2023-11-22T09:50:21;20.57;;;15.53;;
38425;SDS011;24210;51.460;6.148;2023-11-22T09:52:52;20.13;;;12.65;;
38425;SDS011;24210;51.460;6.148;2023-11-22T09:55:20;20.65;;;14.32;;
38425;SDS011;24210;51.460;6.148;2023-11-22T09:57:45;19.90;;;14.47;;
38425;SDS011;24210;51.460;6.148;2023-11-22T10:00:11;18.93;;;14.57;;
38425;SDS011;24210;51.460;6.148;2023-11-22T10:02:39;18.60;;;14.32;;
38425;SDS011;24210;51.460;6.148;2023-11-22T10:05:05;22.10;;;14.82;;
38425;SDS011;24210;51.460;6.148;2023-11-22T10:07:31;21.67;;;14.53;;
38425;SDS011;24210;51.460;6.148;2023-11-22T10:09:57;19.65;;;14.35;;
38425;SDS011;24210;51.460;6.148;2023-11-22T10:12:27;22.63;;;15.63;;
38425;SDS011;24210;51.460;6.148;2023-11-22T10:14:54;17.15;;;13.18;;
38425;SDS011;24210;51.460;6.148;2023-11-22T10:17:20;20.60;;;15.40;;
38425;SDS011;24210;51.460;6.148;2023-11-22T10:19:45;21.30;;;13.63;;
38425;SDS011;24210;51.460;6.148;2023-11-22T10:22:11;17.73;;;13.40;;
38425;SDS011;24210;51.460;6.148;2023-11-22T10:24:40;18.73;;;13.93;;
38425;SDS011;24210;51.460;6.148;2023-11-22T10:27:08;15.82;;;11.63;;
38425;SDS011;24210;51.460;6.148;2023-11-22T10:29:35;17.67;;;11.63;;
38425;SDS011;24210;51.460;6.148;2023-11-22T10:32:01;18.10;;;11.53;;
38425;SDS011;24210;51.460;6.148;2023-11-22T10:34:28;16.25;;;11.30;;
38425;SDS011;24210;51.460;6.148;2023-11-22T10:36:55;14.95;;;11.27;;
38425;SDS011;24210;51.460;6.148;2023-11-22T10:39:20;16.55;;;12.05;;
38425;SDS011;24210;51.460;6.148;2023-11-22T10:41:46;15.93;;;12.45;;
38425;SDS011;24210;51.460;6.148;2023-11-22T10:44:12;17.50;;;12.93;;
38425;SDS011;24210;51.460;6.148;2023-11-22T10:46:38;18.43;;;13.27;;
38425;SDS011;24210;51.460;6.148;2023-11-22T10:51:32;15.68;;;11.25;;
38425;SDS011;24210;51.460;6.148;2023-11-22T10:53:58;16.38;;;11.35;;
38425;SDS011;24210;51.460;6.148;2023-11-22T10:56:25;14.77;;;9.90;;
38425;SDS011;24210;51.460;6.148;2023-11-22T10:58:52;19.43;;;10.57;;
38425;SDS011;24210;51.460;6.148;2023-11-22T11:01:21;17.20;;;11.90;;
38425;SDS011;24210;51.460;6.148;2023-11-22T11:06:14;14.88;;;11.52;;
38425;SDS011;24210;51.460;6.148;2023-11-22T11:08:40;18.17;;;10.48;;
38425;SDS011;24210;51.460;6.148;2023-11-22T11:11:06;13.43;;;10.35;;
38425;SDS011;24210;51.460;6.148;2023-11-22T11:13:32;13.57;;;9.53;;
38425;SDS011;24210;51.460;6.148;2023-11-22T11:15:57;16.03;;;11.57;;
38425;SDS011;24210;51.460;6.148;2023-11-22T11:18:23;14.03;;;10.67;;
38425;SDS011;24210;51.460;6.148;2023-11-22T11:20:52;14.45;;;10.90;;
38425;SDS011;24210;51.460;6.148;2023-11-22T11:23:22;16.25;;;11.95;;
38425;SDS011;24210;51.460;6.148;2023-11-22T11:25:52;15.48;;;11.20;;
38425;SDS011;24210;51.460;6.148;2023-11-22T11:28:18;16.25;;;11.93;;
38425;SDS011;24210;51.460;6.148;2023-11-22T11:30:45;16.53;;;11.90;;
38425;SDS011;24210;51.460;6.148;2023-11-22T11:33:14;17.45;;;12.85;;
38425;SDS011;24210;51.460;6.148;2023-11-22T11:35:51;15.35;;;11.43;;
38425;SDS011;24210;51.460;6.148;2023-11-22T11:38:19;17.10;;;12.02;;
38425;SDS011;24210;51.460;6.148;2023-11-22T11:40:45;18.05;;;12.43;;
38425;SDS011;24210;51.460;6.148;2023-11-22T11:43:11;17.77;;;13.73;;
38425;SDS011;24210;51.460;6.148;2023-11-22T11:45:38;19.42;;;11.82;;
38425;SDS011;24210;51.460;6.148;2023-11-22T11:50:29;18.23;;;12.43;;
38425;SDS011;24210;51.460;6.148;2023-11-22T11:52:54;18.43;;;11.93;;
38425;SDS011;24210;51.460;6.148;2023-11-22T11:55:20;19.97;;;13.73;;
38425;SDS011;24210;51.460;6.148;2023-11-22T11:57:45;19.43;;;13.60;;
38425;SDS011;24210;51.460;6.148;2023-11-22T12:00:13;19.42;;;11.48;;
38425;SDS011;24210;51.460;6.148;2023-11-22T12:02:39;21.13;;;12.75;;
38425;SDS011;24210;51.460;6.148;2023-11-22T12:05:04;19.00;;;12.87;;
38425;SDS011;24210;51.460;6.148;2023-11-22T12:07:33;16.95;;;12.13;;
38425;SDS011;24210;51.460;6.148;2023-11-22T12:09:59;16.57;;;11.23;;
38425;SDS011;24210;51.460;6.148;2023-11-22T12:12:25;13.45;;;9.68;;
38425;SDS011;24210;51.460;6.148;2023-11-22T12:14:50;13.83;;;9.17;;
38425;SDS011;24210;51.460;6.148;2023-11-22T12:17:16;10.20;;;7.30;;
38425;SDS011;24210;51.460;6.148;2023-11-22T12:19:41;14.47;;;7.80;;
38425;SDS011;24210;51.460;6.148;2023-11-22T12:22:06;10.33;;;5.83;;
38425;SDS011;24210;51.460;6.148;2023-11-22T12:24:32;5.90;;;4.55;;
38425;SDS011;24210;51.460;6.148;2023-11-22T12:26:58;6.10;;;4.23;;
38425;SDS011;24210;51.460;6.148;2023-11-22T12:29:23;7.50;;;5.27;;
38425;SDS011;24210;51.460;6.148;2023-11-22T12:31:49;8.47;;;5.83;;
38425;SDS011;24210;51.460;6.148;2023-11-22T12:34:22;6.63;;;4.05;;
38425;SDS011;24210;51.460;6.148;2023-11-22T12:36:47;9.00;;;5.60;;
38425;SDS011;24210;51.460;6.148;2023-11-22T12:39:14;9.63;;;6.22;;
38425;SDS011;24210;51.460;6.148;2023-11-22T12:41:48;7.82;;;5.60;;
38425;SDS011;24210;51.460;6.148;2023-11-22T12:44:15;7.03;;;6.03;;
38425;SDS011;24210;51.460;6.148;2023-11-22T12:49:22;9.70;;;6.03;;
38425;SDS011;24210;51.460;6.148;2023-11-22T12:51:52;10.50;;;7.17;;
38425;SDS011;24210;51.460;6.148;2023-11-22T12:54:18;10.50;;;6.43;;
38425;SDS011;24210;51.460;6.148;2023-11-22T12:56:49;9.38;;;7.15;;
38425;SDS011;24210;51.460;6.148;2023-11-22T12:59:15;13.23;;;7.50;;
38425;SDS011;24210;51.460;6.148;2023-11-22T13:01:41;12.57;;;8.77;;
38425;SDS011;24210;51.460;6.148;2023-11-22T13:04:06;13.63;;;8.13;;
38425;SDS011;24210;51.460;6.148;2023-11-22T13:06:32;12.63;;;8.57;;
38425;SDS011;24210;51.460;6.148;2023-11-22T13:08:57;10.83;;;6.50;;
38425;SDS011;24210;51.460;6.148;2023-11-22T13:11:22;12.07;;;7.87;;
38425;SDS011;24210;51.460;6.148;2023-11-22T13:13:49;10.43;;;6.05;;
38425;SDS011;24210;51.460;6.148;2023-11-22T13:16:14;12.70;;;9.20;;
38425;SDS011;24210;51.460;6.148;2023-11-22T13:18:41;13.93;;;9.18;;
38425;SDS011;24210;51.460;6.148;2023-11-22T13:21:06;12.43;;;6.93;;
38425;SDS011;24210;51.460;6.148;2023-11-22T13:23:31;18.37;;;8.83;;
38425;SDS011;24210;51.460;6.148;2023-11-22T13:25:58;14.27;;;9.55;;
38425;SDS011;24210;51.460;6.148;2023-11-22T13:28:23;15.17;;;9.57;;
38425;SDS011;24210;51.460;6.148;2023-11-22T13:30:50;14.85;;;9.77;;
38425;SDS011;24210;51.460;6.148;2023-11-22T13:33:15;18.27;;;11.30;;
38425;SDS011;24210;51.460;6.148;2023-11-22T13:35:41;21.73;;;10.83;;
38425;SDS011;24210;51.460;6.148;2023-11-22T13:38:06;17.60;;;10.77;;
38425;SDS011;24210;51.460;6.148;2023-11-22T13:40:35;19.48;;;11.38;;
38425;SDS011;24210;51.460;6.148;2023-11-22T13:43:02;15.95;;;9.27;;
38425;SDS011;24210;51.460;6.148;2023-11-22T13:45:28;16.08;;;9.88;;
38425;SDS011;24210;51.460;6.148;2023-11-22T13:47:54;19.10;;;10.33;;
38425;SDS011;24210;51.460;6.148;2023-11-22T13:50:23;15.70;;;9.23;;
38425;SDS011;24210;51.460;6.148;2023-11-22T13:52:48;15.93;;;10.93;;
38425;SDS011;24210;51.460;6.148;2023-11-22T13:55:14;19.33;;;12.93;;
38425;SDS011;24210;51.460;6.148;2023-11-22T13:57:41;17.80;;;12.00;;
38425;SDS011;24210;51.460;6.148;2023-11-22T14:00:07;17.33;;;10.07;;
38425;SDS011;24210;51.460;6.148;2023-11-22T14:02:46;19.15;;;12.20;;
38425;SDS011;24210;51.460;6.148;2023-11-22T14:05:13;22.33;;;12.85;;
38425;SDS011;24210;51.460;6.148;2023-11-22T14:07:40;18.65;;;14.60;;
38425;SDS011;24210;51.460;6.148;2023-11-22T14:10:05;19.20;;;11.33;;
38425;SDS011;24210;51.460;6.148;2023-11-22T14:12:31;24.40;;;14.87;;
38425;SDS011;24210;51.460;6.148;2023-11-22T14:14:57;22.20;;;13.87;;
38425;SDS011;24210;51.460;6.148;2023-11-22T14:17:23;26.17;;;15.47;;
38425;SDS011;24210;51.460;6.148;2023-11-22T14:19:49;25.80;;;15.82;;
38425;SDS011;24210;51.460;6.148;2023-11-22T14:22:14;21.10;;;14.00;;
38425;SDS011;24210;51.460;6.148;2023-11-22T14:24:39;17.57;;;10.37;;
38425;SDS011;24210;51.460;6.148;2023-11-22T14:27:05;16.23;;;10.13;;
38425;SDS011;24210;51.460;6.148;2023-11-22T14:29:30;17.50;;;10.60;;
38425;SDS011;24210;51.460;6.148;2023-11-22T14:31:56;22.17;;;13.00;;
38425;SDS011;24210;51.460;6.148;2023-11-22T14:34:22;22.77;;;14.90;;
38425;SDS011;24210;51.460;6.148;2023-11-22T14:36:47;24.33;;;16.13;;
38425;SDS011;24210;51.460;6.148;2023-11-22T14:39:12;21.93;;;14.37;;
38425;SDS011;24210;51.460;6.148;2023-11-22T14:41:39;19.63;;;12.90;;